Terrell, Texas
Current Conditions -  °F | °C
As of 5:53 PM on Sunday 25 Jan 2015 (Local Time) from KTRL Reporting Station
Clear Clear  
Wind Chill: 57°   Ceiling: Unl
Heat Index: 57°   Visibility: 10mi
Dew Point: 30°   Wind: 8mph
Humidity: 36%   Direction: 320°NW
Pressure: 30.06"   Gusts: NA
Location:  32.74°N, 96.27°W
Report Text: KTRL 252353Z AUTO 32007KT 10SM CLR 14/M01 A3006 RMK AO2 SLP179 T01391011 10183 20139 51013
Loading
Personal Weather Stations






























Interactive Weather Map New forecast layout! Learn more

10-Day Weather Forecast

Advertisements
Track Severe Weather on mobile